createdAt,value
2018-07-26T00:01:33.114Z,10.90
2018-07-26T00:04:05.591Z,10.60
2018-07-26T00:06:37.211Z,10.67
2018-07-26T00:09:11.531Z,10.57
2018-07-26T00:11:43.051Z,10.97
2018-07-26T00:14:15.032Z,10.07
2018-07-26T00:16:46.391Z,11.23
2018-07-26T00:19:18.032Z,10.40
2018-07-26T00:21:49.591Z,10.43
2018-07-26T00:24:21.291Z,11.80
2018-07-26T00:26:53.651Z,11.90
2018-07-26T00:29:25.191Z,12.43
2018-07-26T00:31:57.375Z,10.47
2018-07-26T00:34:29.812Z,11.23
2018-07-26T00:37:01.356Z,10.80
2018-07-26T00:39:33.212Z,12.97
2018-07-26T00:42:05.015Z,10.93
2018-07-26T00:44:37.531Z,11.50
2018-07-26T00:47:08.772Z,11.00
2018-07-26T00:49:41.672Z,11.97
2018-07-26T00:52:13.272Z,11.73
2018-07-26T00:54:45.632Z,10.67
2018-07-26T00:57:17.171Z,14.70
2018-07-26T00:59:48.951Z,11.00
2018-07-26T01:02:20.951Z,11.10
2018-07-26T01:04:53.151Z,11.23
2018-07-26T01:07:25.631Z,10.80
2018-07-26T01:09:57.731Z,11.53
2018-07-26T01:12:29.292Z,12.03
2018-07-26T01:15:00.852Z,11.60
2018-07-26T01:17:33.012Z,12.77
2018-07-26T01:20:05.591Z,12.13
2018-07-26T01:22:37.731Z,11.53
2018-07-26T01:25:09.031Z,11.53
2018-07-26T01:27:40.631Z,11.03
2018-07-26T01:30:12.812Z,11.20
2018-07-26T01:32:45.731Z,10.97
2018-07-26T01:35:17.351Z,11.63
2018-07-26T01:37:50.371Z,10.57
2018-07-26T01:40:22.192Z,11.33
2018-07-26T01:43:04.691Z,11.33
2018-07-26T01:45:36.971Z,12.30
2018-07-26T01:48:08.711Z,10.80
2018-07-26T01:50:40.051Z,11.50
2018-07-26T01:53:11.831Z,10.97
2018-07-26T01:55:44.151Z,11.77
2018-07-26T01:58:16.572Z,12.37
2018-07-26T02:00:48.691Z,10.83
2018-07-26T02:03:20.631Z,10.63
2018-07-26T02:05:53.431Z,10.50
2018-07-26T02:08:25.013Z,11.50
2018-07-26T02:10:56.593Z,10.73
2018-07-26T02:13:27.931Z,11.40
2018-07-26T02:16:00.132Z,11.27
2018-07-26T02:18:31.791Z,11.07
2018-07-26T02:21:03.833Z,10.70
2018-07-26T02:23:35.672Z,10.23
2018-07-26T02:26:07.931Z,11.30
2018-07-26T02:28:40.431Z,9.80
2018-07-26T02:31:11.936Z,10.67
2018-07-26T02:33:44.112Z,10.10
2018-07-26T02:36:15.851Z,11.57
2018-07-26T02:38:47.691Z,10.67
2018-07-26T02:41:19.413Z,10.90
2018-07-26T02:43:51.852Z,11.27
2018-07-26T02:46:23.572Z,10.70
2018-07-26T02:48:55.591Z,11.20
2018-07-26T02:51:27.431Z,11.77
2018-07-26T02:53:59.192Z,12.10
2018-07-26T02:56:31.658Z,13.20
2018-07-26T02:59:03.573Z,13.90
2018-07-26T03:01:35.732Z,11.47
2018-07-26T03:04:08.372Z,12.70
2018-07-26T03:06:40.296Z,10.67
2018-07-26T03:09:11.509Z,11.33
2018-07-26T03:11:43.253Z,14.53
2018-07-26T03:14:16.052Z,12.13
2018-07-26T03:16:47.191Z,11.93
2018-07-26T03:19:18.711Z,14.90
2018-07-26T03:21:50.551Z,11.57
2018-07-26T03:24:22.493Z,12.23
2018-07-26T03:26:54.651Z,11.87
2018-07-26T03:29:26.711Z,11.90
2018-07-26T03:31:58.551Z,11.83
2018-07-26T03:34:31.151Z,11.97
2018-07-26T03:37:03.595Z,12.00
2018-07-26T03:39:35.191Z,11.60
2018-07-26T03:42:07.475Z,11.87
2018-07-26T03:44:39.291Z,16.57
2018-07-26T03:47:11.191Z,14.00
2018-07-26T03:49:43.652Z,20.47
2018-07-26T03:52:15.271Z,12.47
2018-07-26T03:54:46.771Z,11.57
2018-07-26T03:57:19.191Z,12.57
2018-07-26T03:59:51.413Z,13.17
2018-07-26T04:02:23.031Z,11.90
2018-07-26T04:04:55.596Z,12.07
2018-07-26T04:07:27.191Z,12.07
2018-07-26T04:09:59.571Z,12.20
2018-07-26T04:12:31.731Z,13.30
2018-07-26T04:15:03.472Z,12.83
2018-07-26T04:17:35.871Z,12.17
2018-07-26T04:20:07.566Z,12.13
2018-07-26T04:22:38.952Z,12.33
2018-07-26T04:25:10.193Z,14.60
2018-07-26T04:27:41.632Z,14.07
2018-07-26T04:30:12.852Z,12.77
2018-07-26T04:32:44.313Z,13.00
2018-07-26T04:35:16.811Z,13.53
2018-07-26T04:37:48.531Z,13.20
2018-07-26T04:40:20.997Z,15.83
2018-07-26T04:42:52.538Z,13.70
2018-07-26T04:45:25.097Z,17.77
2018-07-26T04:47:57.437Z,13.57
2018-07-26T04:50:29.877Z,12.93
2018-07-26T04:53:01.597Z,13.90
2018-07-26T04:55:34.006Z,12.87
2018-07-26T04:58:05.377Z,12.87
2018-07-26T05:00:37.337Z,13.27
2018-07-26T05:03:09.377Z,12.90
2018-07-26T05:05:41.497Z,13.50
2018-07-26T05:08:13.412Z,14.20
2018-07-26T05:10:46.017Z,13.57
2018-07-26T05:13:18.759Z,12.33
2018-07-26T05:15:50.437Z,13.50
2018-07-26T05:18:22.985Z,16.90
2018-07-26T05:20:55.828Z,13.67
2018-07-26T05:23:27.337Z,13.23
2018-07-26T05:25:59.637Z,13.60
2018-07-26T05:28:31.877Z,12.60
2018-07-26T05:31:03.277Z,11.90
2018-07-26T05:33:35.757Z,16.53
2018-07-26T05:36:07.418Z,13.63
2018-07-26T05:38:39.637Z,12.87
2018-07-26T05:41:12.038Z,11.30
2018-07-26T05:43:44.597Z,11.13
2018-07-26T05:46:17.584Z,12.60
2018-07-26T05:48:49.097Z,12.13
2018-07-26T05:51:20.737Z,14.30
2018-07-26T05:53:52.657Z,12.60
2018-07-26T05:56:24.677Z,12.90
2018-07-26T05:58:55.917Z,14.27
2018-07-26T06:01:28.257Z,13.27
2018-07-26T06:03:59.097Z,18.90
2018-07-26T06:06:31.097Z,13.27
2018-07-26T06:09:04.181Z,11.73
2018-07-26T06:11:36.157Z,14.67
2018-07-26T06:14:10.077Z,18.60
2018-07-26T06:16:42.577Z,17.60
2018-07-26T06:19:14.997Z,14.20
2018-07-26T06:21:47.497Z,12.70
2018-07-26T06:24:19.997Z,13.90
2018-07-26T06:26:52.278Z,14.10
2018-07-26T06:29:23.996Z,14.30
2018-07-26T06:31:56.359Z,15.00
2018-07-26T06:34:27.497Z,14.10
2018-07-26T06:36:59.404Z,14.23
2018-07-26T06:39:31.105Z,14.80
2018-07-26T06:42:03.319Z,16.23
2018-07-26T06:44:34.938Z,14.27
2018-07-26T06:47:06.697Z,16.07
2018-07-26T06:49:38.998Z,13.30
2018-07-26T06:52:10.903Z,13.03
2018-07-26T06:54:42.717Z,12.90
2018-07-26T06:57:15.300Z,12.60
2018-07-26T06:59:47.537Z,12.33
2018-07-26T07:02:19.039Z,12.37
2018-07-26T07:04:51.637Z,12.33
2018-07-26T07:07:22.717Z,12.30
2018-07-26T07:09:54.578Z,12.13
2018-07-26T07:12:26.439Z,11.30
2018-07-26T07:14:58.617Z,13.87
2018-07-26T07:17:30.303Z,11.87
2018-07-26T07:20:02.262Z,11.77
2018-07-26T07:22:33.463Z,12.43
2018-07-26T07:25:05.871Z,11.90
2018-07-26T07:27:37.302Z,12.30
2018-07-26T07:30:11.045Z,13.57
2018-07-26T07:32:43.622Z,12.10
2018-07-26T07:35:15.222Z,11.97
2018-07-26T07:37:46.803Z,11.90
2018-07-26T07:40:18.762Z,12.50
2018-07-26T07:42:50.942Z,12.50
2018-07-26T07:45:22.923Z,12.97
2018-07-26T07:47:54.303Z,13.03
2018-07-26T07:50:25.474Z,13.50
2018-07-26T07:52:57.648Z,13.27
2018-07-26T07:55:29.662Z,11.70
2018-07-26T07:58:01.285Z,11.60
2018-07-26T08:00:33.324Z,12.20
2018-07-26T08:03:05.443Z,12.73
2018-07-26T08:05:36.942Z,13.53
2018-07-26T08:08:08.306Z,13.20
2018-07-26T08:10:40.822Z,11.30
2018-07-26T08:13:11.942Z,13.10
2018-07-26T08:15:43.421Z,11.90
2018-07-26T08:18:15.102Z,12.60
2018-07-26T08:20:47.462Z,14.20
2018-07-26T08:23:19.472Z,13.13
2018-07-26T08:25:51.337Z,13.30
2018-07-26T08:28:22.561Z,13.47
2018-07-26T08:30:54.187Z,13.47
2018-07-26T08:33:26.656Z,12.27
2018-07-26T08:35:58.755Z,12.17
2018-07-26T08:38:30.522Z,11.93
2018-07-26T08:41:02.574Z,11.87
2018-07-26T08:43:34.131Z,11.97
2018-07-26T08:46:05.896Z,12.37
2018-07-26T08:48:37.239Z,11.70
2018-07-26T08:51:09.416Z,12.70
2018-07-26T08:53:41.137Z,12.23
2018-07-26T08:56:13.136Z,12.00
2018-07-26T08:58:45.136Z,12.60
2018-07-26T09:01:15.204Z,12.80
2018-07-26T09:03:47.526Z,12.37
2018-07-26T09:06:19.606Z,12.20
2018-07-26T09:08:51.408Z,12.03
2018-07-26T09:11:24.169Z,13.43
2018-07-26T09:13:55.907Z,12.93
2018-07-26T09:16:28.288Z,16.47
2018-07-26T09:18:59.526Z,13.63
2018-07-26T09:21:31.886Z,12.50
2018-07-26T09:24:04.047Z,14.33
2018-07-26T09:26:35.777Z,12.70
2018-07-26T09:29:07.677Z,12.97
2018-07-26T09:31:39.717Z,14.30
2018-07-26T09:34:11.356Z,14.30
2018-07-26T09:36:43.277Z,13.80
2018-07-26T09:39:16.637Z,13.80
2018-07-26T09:41:49.017Z,13.83
2018-07-26T09:44:20.580Z,16.13
2018-07-26T09:46:52.717Z,12.80
2018-07-26T09:49:23.485Z,17.10
2018-07-26T09:51:55.712Z,40.13
2018-07-26T09:54:28.231Z,17.97
2018-07-26T09:57:00.311Z,14.33
2018-07-26T09:59:31.891Z,13.73
2018-07-26T10:02:04.209Z,19.00
2018-07-26T10:04:36.348Z,15.80
2018-07-26T10:07:09.275Z,16.40
2018-07-26T10:09:41.250Z,16.23
2018-07-26T10:12:13.709Z,16.97
2018-07-26T10:14:45.470Z,17.50
2018-07-26T10:17:17.170Z,16.90
2018-07-26T10:19:48.589Z,17.67
2018-07-26T10:22:20.210Z,21.30
2018-07-26T10:24:51.850Z,16.77
2018-07-26T10:27:23.228Z,17.60
2018-07-26T10:29:55.389Z,16.37
2018-07-26T10:32:26.648Z,17.17
2018-07-26T10:34:58.549Z,17.57
2018-07-26T10:37:30.328Z,15.87
2018-07-26T10:40:02.350Z,16.53
2018-07-26T10:42:33.948Z,15.83
2018-07-26T10:45:06.069Z,15.30
2018-07-26T10:47:37.988Z,14.47
2018-07-26T10:50:11.688Z,16.40
2018-07-26T10:52:42.948Z,15.03
2018-07-26T10:55:14.469Z,16.50
2018-07-26T10:57:46.548Z,16.70
2018-07-26T11:00:18.094Z,15.37
2018-07-26T11:02:49.934Z,17.70
2018-07-26T11:05:23.477Z,17.13
2018-07-26T11:07:54.966Z,18.23
2018-07-26T11:10:26.346Z,16.90
2018-07-26T11:12:58.066Z,16.23
2018-07-26T11:15:34.231Z,16.30
2018-07-26T11:18:06.248Z,15.53
2018-07-26T11:20:38.547Z,16.10
2018-07-26T11:23:10.346Z,14.50
2018-07-26T11:25:41.972Z,14.30
2018-07-26T11:28:14.146Z,14.63
2018-07-26T11:30:46.106Z,14.00
2018-07-26T11:33:18.866Z,14.77
2018-07-26T11:35:51.434Z,13.80
2018-07-26T11:38:23.827Z,13.37
2018-07-26T11:40:55.826Z,15.37
2018-07-26T11:43:28.366Z,13.17
2018-07-26T11:45:59.809Z,13.33
2018-07-26T11:48:32.192Z,13.70
2018-07-26T11:51:04.210Z,12.03
2018-07-26T11:53:36.364Z,10.83
2018-07-26T11:56:07.810Z,12.87
2018-07-26T11:58:40.190Z,11.07
2018-07-26T12:01:12.449Z,11.10
2018-07-26T12:03:44.769Z,11.37
2018-07-26T12:06:17.830Z,11.77
2018-07-26T12:08:49.083Z,11.37
2018-07-26T12:11:20.345Z,10.10
2018-07-26T12:13:51.157Z,10.33
2018-07-26T12:16:24.137Z,8.30
2018-07-26T12:18:55.898Z,10.37
2018-07-26T12:21:28.397Z,9.67
2018-07-26T12:24:00.138Z,8.87
2018-07-26T12:26:31.723Z,8.90
2018-07-26T12:29:04.299Z,10.73
2018-07-26T12:31:37.037Z,9.90
2018-07-26T12:34:08.792Z,7.20
2018-07-26T12:36:39.991Z,6.50
2018-07-26T12:39:13.491Z,6.47
2018-07-26T12:41:46.433Z,6.50
2018-07-26T12:44:18.133Z,6.57
2018-07-26T12:46:49.771Z,5.90
2018-07-26T12:49:21.011Z,6.80
2018-07-26T12:51:53.377Z,5.37
2018-07-26T12:54:25.214Z,7.03
2018-07-26T12:56:56.691Z,7.10
2018-07-26T12:59:29.195Z,5.70
2018-07-26T13:02:02.332Z,5.50
2018-07-26T13:04:33.311Z,5.40
2018-07-26T13:07:06.584Z,5.27
2018-07-26T13:09:38.111Z,5.40
2018-07-26T13:12:10.572Z,4.43
2018-07-26T13:14:42.109Z,5.40
2018-07-26T13:17:15.091Z,5.70
2018-07-26T13:19:46.491Z,6.10
2018-07-26T13:22:19.071Z,5.60
2018-07-26T13:24:51.211Z,8.60
2018-07-26T13:27:22.951Z,5.53
2018-07-26T13:29:55.031Z,5.60
2018-07-26T13:32:27.111Z,7.00
2018-07-26T13:34:58.731Z,5.63
2018-07-26T13:37:30.551Z,5.30
2018-07-26T13:40:01.978Z,5.60
2018-07-26T13:42:34.378Z,5.73
2018-07-26T13:45:06.081Z,6.80
2018-07-26T13:47:37.990Z,5.23
2018-07-26T13:50:09.598Z,5.70
2018-07-26T13:52:41.615Z,5.47
2018-07-26T13:55:13.963Z,4.90
2018-07-26T13:57:46.292Z,5.47
2018-07-26T14:00:16.182Z,5.63
2018-07-26T14:02:47.822Z,5.83
2018-07-26T14:05:19.441Z,6.60
2018-07-26T14:07:51.184Z,5.50
2018-07-26T14:10:23.422Z,6.00
2018-07-26T14:12:54.863Z,4.83
2018-07-26T14:15:27.145Z,5.27
2018-07-26T14:17:59.184Z,6.10
2018-07-26T14:20:30.468Z,5.23
2018-07-26T14:23:02.732Z,5.90
2018-07-26T14:25:34.863Z,5.07
2018-07-26T14:28:06.361Z,5.80
2018-07-26T14:30:38.469Z,6.70
2018-07-26T14:33:10.704Z,8.93
2018-07-26T14:35:43.364Z,6.20
2018-07-26T14:38:14.554Z,11.10
2018-07-26T14:40:46.704Z,6.63
2018-07-26T14:43:18.824Z,6.67
2018-07-26T14:45:51.124Z,5.57
2018-07-26T14:48:22.763Z,5.50
2018-07-26T14:50:53.958Z,6.87
2018-07-26T14:53:25.144Z,5.50
2018-07-26T14:55:56.824Z,5.90
2018-07-26T14:58:29.120Z,5.30
2018-07-26T15:01:01.269Z,6.93
2018-07-26T15:03:33.153Z,5.10
2018-07-26T15:06:05.139Z,5.40
2018-07-26T15:08:36.901Z,4.30
2018-07-26T15:11:09.520Z,6.43
2018-07-26T15:13:40.957Z,5.43
2018-07-26T15:16:13.336Z,6.60
2018-07-26T15:18:45.461Z,5.77
2018-07-26T15:21:17.456Z,6.00
2018-07-26T15:23:48.975Z,5.83
2018-07-26T15:26:20.813Z,5.47
2018-07-26T15:28:52.375Z,6.30
2018-07-26T15:31:24.315Z,6.17
2018-07-26T15:33:56.356Z,5.63
2018-07-26T15:36:27.638Z,6.03
2018-07-26T15:38:59.615Z,7.17
2018-07-26T15:41:31.301Z,5.40
2018-07-26T15:44:03.236Z,5.30
2018-07-26T15:46:35.536Z,5.53
2018-07-26T15:49:08.317Z,6.50
2018-07-26T15:51:40.457Z,5.63
2018-07-26T15:54:12.416Z,5.77
2018-07-26T15:56:45.616Z,5.43
2018-07-26T15:59:16.316Z,5.43
2018-07-26T16:01:48.097Z,5.97
2018-07-26T16:04:19.636Z,4.77
2018-07-26T16:06:51.756Z,6.60
2018-07-26T16:09:23.998Z,5.80
2018-07-26T16:11:55.558Z,7.50
2018-07-26T16:14:27.797Z,6.20
2018-07-26T16:16:59.876Z,6.13
2018-07-26T16:19:31.296Z,5.60
2018-07-26T16:22:04.497Z,6.07
2018-07-26T16:24:35.827Z,6.30
2018-07-26T16:27:07.897Z,5.90
2018-07-26T16:29:39.936Z,6.27
2018-07-26T16:32:11.835Z,6.47
2018-07-26T16:34:43.636Z,6.27
2018-07-26T16:37:15.456Z,5.60
2018-07-26T16:39:48.261Z,6.07
2018-07-26T16:42:20.321Z,4.83
2018-07-26T16:44:51.617Z,6.03
2018-07-26T16:47:23.576Z,5.43
2018-07-26T16:49:55.916Z,6.70
2018-07-26T16:52:27.936Z,5.93
2018-07-26T16:54:59.797Z,5.80
2018-07-26T16:57:31.343Z,6.87
2018-07-26T17:00:03.416Z,5.90
2018-07-26T17:02:35.078Z,5.13
2018-07-26T17:05:07.856Z,5.90
2018-07-26T17:07:39.438Z,5.67
2018-07-26T17:10:11.997Z,5.77
2018-07-26T17:12:43.477Z,6.13
2018-07-26T17:15:15.616Z,7.00
2018-07-26T17:17:47.896Z,6.50
2018-07-26T17:20:19.556Z,5.73
2018-07-26T17:22:51.298Z,6.00
2018-07-26T17:25:25.736Z,7.50
2018-07-26T17:27:58.016Z,6.20
2018-07-26T17:30:30.056Z,8.40
2018-07-26T17:33:01.917Z,6.20
2018-07-26T17:35:33.998Z,6.47
2018-07-26T17:38:06.196Z,6.70
2018-07-26T17:40:37.916Z,6.60
2018-07-26T17:43:10.576Z,7.30
2018-07-26T17:45:42.317Z,6.77
2018-07-26T17:48:15.456Z,6.60
2018-07-26T17:50:47.036Z,6.10
2018-07-26T17:53:18.396Z,7.27
2018-07-26T17:55:50.095Z,7.50
2018-07-26T17:58:21.756Z,6.33
2018-07-26T18:00:53.916Z,10.47
2018-07-26T18:03:26.816Z,6.67
2018-07-26T18:05:58.419Z,6.10
2018-07-26T18:08:30.556Z,6.23
2018-07-26T18:11:03.276Z,6.90
2018-07-26T18:13:35.017Z,6.97
2018-07-26T18:16:07.836Z,6.80
2018-07-26T18:18:39.835Z,6.17
2018-07-26T18:21:12.463Z,6.53
2018-07-26T18:23:44.658Z,7.80
2018-07-26T18:26:16.476Z,6.80
2018-07-26T18:28:49.161Z,6.57
2018-07-26T18:31:20.481Z,7.47
2018-07-26T18:33:52.885Z,7.03
2018-07-26T18:36:24.605Z,7.40
2018-07-26T18:38:57.450Z,6.83
2018-07-26T18:41:28.284Z,7.33
2018-07-26T18:44:00.945Z,6.73
2018-07-26T18:46:31.865Z,7.73
2018-07-26T18:49:04.245Z,7.33
2018-07-26T18:51:36.165Z,6.90
2018-07-26T18:54:08.715Z,7.83
2018-07-26T18:56:40.805Z,8.53
2018-07-26T18:59:12.784Z,6.60
2018-07-26T19:01:44.944Z,7.27
2018-07-26T19:04:17.664Z,7.63
2018-07-26T19:06:49.184Z,8.17
2018-07-26T19:09:21.124Z,7.47
2018-07-26T19:11:53.224Z,6.70
2018-07-26T19:14:24.747Z,7.60
2018-07-26T19:16:56.608Z,7.03
2018-07-26T19:19:28.966Z,6.67
2018-07-26T19:22:00.670Z,7.23
2018-07-26T19:24:32.165Z,7.37
2018-07-26T19:27:02.885Z,7.17
2018-07-26T19:29:35.349Z,6.70
2018-07-26T19:32:08.105Z,7.60
2018-07-26T19:34:40.125Z,6.60
2018-07-26T19:37:13.028Z,7.27
2018-07-26T19:39:45.130Z,7.83
2018-07-26T19:42:17.664Z,6.77
2018-07-26T19:44:50.965Z,6.17
2018-07-26T19:47:22.425Z,7.60
2018-07-26T19:49:54.624Z,7.00
2018-07-26T19:52:25.885Z,6.40
2018-07-26T19:54:57.945Z,6.40
2018-07-26T19:57:30.345Z,7.13
2018-07-26T20:00:02.366Z,7.17
2018-07-26T20:02:34.885Z,7.50
2018-07-26T20:05:06.725Z,6.90
2018-07-26T20:07:39.487Z,8.87
2018-07-26T20:10:13.609Z,7.83
2018-07-26T20:12:45.744Z,8.13
2018-07-26T20:15:17.945Z,7.60
2018-07-26T20:17:50.385Z,7.40
2018-07-26T20:20:22.485Z,8.10
2018-07-26T20:22:56.165Z,7.07
2018-07-26T20:25:28.544Z,7.77
2018-07-26T20:28:01.504Z,6.90
2018-07-26T20:30:34.289Z,7.50
2018-07-26T20:33:06.365Z,6.73
2018-07-26T20:35:38.526Z,7.83
2018-07-26T20:38:10.065Z,6.80
2018-07-26T20:40:42.806Z,7.07
2018-07-26T20:43:14.612Z,6.83
2018-07-26T20:45:46.285Z,7.23
2018-07-26T20:48:18.913Z,6.70
2018-07-26T20:50:50.759Z,7.40
2018-07-26T20:53:22.864Z,7.70
2018-07-26T20:55:55.046Z,7.20
2018-07-26T20:58:28.006Z,7.97
2018-07-26T21:01:00.607Z,7.40
2018-07-26T21:03:32.685Z,8.93
2018-07-26T21:06:04.825Z,7.60
2018-07-26T21:08:36.945Z,8.43
2018-07-26T21:11:09.705Z,7.20
2018-07-26T21:13:41.305Z,9.13
2018-07-26T21:16:12.965Z,8.20
2018-07-26T21:18:44.508Z,8.47
2018-07-26T21:21:16.765Z,8.13
2018-07-26T21:23:48.685Z,7.90
2018-07-26T21:26:20.328Z,8.20
2018-07-26T21:28:52.398Z,8.40
2018-07-26T21:31:24.720Z,8.87
2018-07-26T21:33:56.538Z,7.47
2018-07-26T21:36:28.840Z,8.00
2018-07-26T21:39:00.493Z,8.97
2018-07-26T21:41:32.678Z,8.13
2018-07-26T21:44:04.639Z,8.90
2018-07-26T21:46:36.658Z,9.43
2018-07-26T21:49:08.578Z,8.20
2018-07-26T21:51:40.458Z,9.13
2018-07-26T21:54:12.938Z,7.70
2018-07-26T21:56:44.578Z,8.20
2018-07-26T21:59:17.062Z,8.30
2018-07-26T22:01:48.580Z,7.37
2018-07-26T22:04:21.198Z,8.77
2018-07-26T22:06:53.198Z,9.60
2018-07-26T22:09:25.818Z,7.83
2018-07-26T22:11:57.540Z,8.20
2018-07-26T22:14:29.438Z,9.23
2018-07-26T22:17:01.038Z,7.80
2018-07-26T22:19:32.640Z,9.60
2018-07-26T22:22:05.004Z,8.83
2018-07-26T22:24:36.978Z,7.40
2018-07-26T22:27:09.359Z,7.87
2018-07-26T22:29:41.538Z,8.20
2018-07-26T22:32:13.278Z,8.47
2018-07-26T22:34:45.838Z,7.57
2018-07-26T22:37:17.538Z,7.80
2018-07-26T22:39:49.798Z,8.07
2018-07-26T22:42:21.298Z,8.10
2018-07-26T22:44:52.198Z,7.80
2018-07-26T22:47:24.178Z,8.00
2018-07-26T22:49:56.340Z,8.43
2018-07-26T22:52:28.018Z,7.73
2018-07-26T22:54:59.958Z,7.83
2018-07-26T22:57:31.658Z,7.73
2018-07-26T23:00:03.898Z,8.00
2018-07-26T23:02:35.458Z,6.87
2018-07-26T23:05:07.518Z,7.40
2018-07-26T23:07:39.278Z,8.40
2018-07-26T23:10:11.537Z,7.83
2018-07-26T23:12:43.177Z,7.50
2018-07-26T23:15:15.617Z,7.80
2018-07-26T23:17:47.238Z,8.40
2018-07-26T23:20:19.437Z,8.23
2018-07-26T23:22:55.457Z,8.00
2018-07-26T23:25:26.599Z,8.70
2018-07-26T23:27:58.420Z,8.17
2018-07-26T23:30:29.957Z,8.57
2018-07-26T23:33:01.718Z,7.93
2018-07-26T23:35:33.978Z,8.10
2018-07-26T23:38:05.617Z,7.07
2018-07-26T23:40:37.997Z,7.97
2018-07-26T23:43:10.457Z,7.80
2018-07-26T23:45:42.217Z,7.60
2018-07-26T23:48:14.339Z,7.20
2018-07-26T23:50:46.277Z,8.33
2018-07-26T23:53:17.978Z,8.13
2018-07-26T23:55:49.697Z,8.37
2018-07-26T23:58:21.578Z,9.10
